createdAt,value
2022-10-18T00:00:18.921Z,8.90
2022-10-18T00:02:46.136Z,8.98
2022-10-18T00:05:13.176Z,8.99
2022-10-18T00:07:40.236Z,8.94
2022-10-18T00:10:07.782Z,9.00
2022-10-18T00:12:36.976Z,9.04
2022-10-18T00:15:06.448Z,9.04
2022-10-18T00:17:38.242Z,9.07
2022-10-18T00:20:06.606Z,8.98
2022-10-18T00:22:38.729Z,9.03
2022-10-18T00:25:07.163Z,9.11
2022-10-18T00:27:34.867Z,9.16
2022-10-18T00:30:02.217Z,9.15
2022-10-18T00:32:31.580Z,9.13
2022-10-18T00:34:59.363Z,9.13
2022-10-18T00:37:26.320Z,9.16
2022-10-18T00:42:31.063Z,9.17
2022-10-18T00:45:14.951Z,9.12
2022-10-18T00:47:44.118Z,9.09
2022-10-18T00:50:11.809Z,9.08
2022-10-18T00:52:47.160Z,9.03
2022-10-18T00:55:14.251Z,9.01
2022-10-18T00:57:43.622Z,9.03
2022-10-18T01:00:12.197Z,8.91
2022-10-18T01:02:41.909Z,8.92
2022-10-18T01:05:11.677Z,8.84
2022-10-18T01:07:55.584Z,8.67
2022-10-18T01:10:55.207Z,8.62
2022-10-18T01:13:52.812Z,8.64
2022-10-18T01:16:40.803Z,8.55
2022-10-18T01:19:52.731Z,8.60
2022-10-18T01:22:42.817Z,8.59
2022-10-18T01:25:21.965Z,8.59
2022-10-18T01:28:16.343Z,8.61
2022-10-18T01:31:06.288Z,8.68
2022-10-18T01:33:51.245Z,8.70
2022-10-18T01:36:35.335Z,8.71
2022-10-18T01:39:07.844Z,8.72
2022-10-18T01:41:37.424Z,8.76
2022-10-18T01:44:08.625Z,8.75
2022-10-18T01:46:37.742Z,8.77
2022-10-18T01:49:05.293Z,8.83
2022-10-18T01:51:33.592Z,8.83
2022-10-18T01:54:00.726Z,8.86
2022-10-18T01:56:53.490Z,8.80
2022-10-18T01:59:51.653Z,8.77
2022-10-18T02:02:32.383Z,8.72
2022-10-18T02:05:11.710Z,8.82
2022-10-18T02:08:00.165Z,8.84
2022-10-18T02:10:49.040Z,8.83
2022-10-18T02:13:19.531Z,8.84
2022-10-18T02:16:57.172Z,8.70
2022-10-18T02:19:46.459Z,8.70
2022-10-18T02:22:15.352Z,8.73
2022-10-18T02:24:46.691Z,8.79
2022-10-18T02:27:14.144Z,8.78
2022-10-18T02:29:42.408Z,8.78
2022-10-18T02:32:26.034Z,8.78
2022-10-18T02:35:00.976Z,8.81
2022-10-18T02:37:35.501Z,8.84
2022-10-18T02:40:05.057Z,8.86
2022-10-18T02:42:40.729Z,8.85
2022-10-18T02:45:08.130Z,8.72
2022-10-18T02:47:35.240Z,8.70
2022-10-18T02:50:02.354Z,8.69
2022-10-18T02:52:30.877Z,8.72
2022-10-18T02:54:57.889Z,8.63
2022-10-18T02:57:24.914Z,8.72
2022-10-18T02:59:51.896Z,8.75
2022-10-18T03:02:19.011Z,8.69
2022-10-18T03:04:46.054Z,8.62
2022-10-18T03:07:13.034Z,8.66
2022-10-18T03:09:40.131Z,8.58
2022-10-18T03:12:07.375Z,8.58
2022-10-18T03:14:34.427Z,8.62
2022-10-18T03:17:01.395Z,8.56
2022-10-18T03:19:28.434Z,8.60
2022-10-18T03:21:55.565Z,8.57
2022-10-18T03:24:22.734Z,8.52
2022-10-18T03:26:49.825Z,8.55
2022-10-18T03:29:16.871Z,8.54
2022-10-18T03:31:43.964Z,8.56
2022-10-18T03:34:11.071Z,8.45
2022-10-18T03:36:38.953Z,8.29
2022-10-18T03:39:05.955Z,8.27
2022-10-18T03:41:32.959Z,8.30
2022-10-18T03:43:59.954Z,8.16
2022-10-18T03:46:27.146Z,8.18
2022-10-18T03:48:54.179Z,8.15
2022-10-18T03:51:21.313Z,8.11
2022-10-18T03:53:48.319Z,8.18
2022-10-18T03:56:15.491Z,8.20
2022-10-18T03:58:42.650Z,8.10
2022-10-18T04:01:09.709Z,8.04
2022-10-18T04:03:36.895Z,8.08
2022-10-18T04:06:04.164Z,8.12
2022-10-18T04:08:32.181Z,8.07
2022-10-18T04:10:59.136Z,8.12
2022-10-18T04:13:26.309Z,8.20
2022-10-18T04:15:53.278Z,8.24
2022-10-18T04:18:20.316Z,8.28
2022-10-18T04:20:47.497Z,8.35
2022-10-18T04:23:14.481Z,8.32
2022-10-18T04:25:41.460Z,8.31
2022-10-18T04:28:08.707Z,8.36
2022-10-18T04:30:35.985Z,8.36
2022-10-18T04:33:02.976Z,8.37
2022-10-18T04:35:30.088Z,8.42
2022-10-18T04:37:57.166Z,8.43
2022-10-18T04:40:24.174Z,8.49
2022-10-18T04:42:51.249Z,8.49
2022-10-18T04:45:18.236Z,8.57
2022-10-18T04:47:45.285Z,8.63
2022-10-18T04:50:12.274Z,8.65
2022-10-18T04:52:39.274Z,8.63
2022-10-18T04:55:06.906Z,8.66
2022-10-18T04:57:34.102Z,8.77
2022-10-18T05:00:01.572Z,8.82
2022-10-18T05:02:30.349Z,8.87
2022-10-18T05:04:57.798Z,8.86
2022-10-18T05:07:24.969Z,8.91
2022-10-18T05:09:51.923Z,8.91
2022-10-18T05:12:19.024Z,8.88
2022-10-18T05:14:46.103Z,8.81
2022-10-18T05:17:13.106Z,8.83
2022-10-18T05:19:40.275Z,8.84
2022-10-18T05:22:08.046Z,8.93
2022-10-18T05:24:35.168Z,8.95
2022-10-18T05:27:02.258Z,8.88
2022-10-18T05:29:29.318Z,8.85
2022-10-18T05:31:56.413Z,8.90
2022-10-18T05:34:24.823Z,8.90
2022-10-18T05:36:51.998Z,8.93
2022-10-18T05:39:19.000Z,8.78
2022-10-18T05:41:46.068Z,8.82
2022-10-18T05:44:13.093Z,8.84
2022-10-18T05:46:40.166Z,8.80
2022-10-18T05:49:07.093Z,8.81
2022-10-18T05:51:34.111Z,8.90
2022-10-18T05:54:01.197Z,8.93
2022-10-18T05:56:28.191Z,8.92
2022-10-18T05:58:55.224Z,8.88
2022-10-18T06:01:23.311Z,8.97
2022-10-18T06:03:51.716Z,9.02
2022-10-18T06:06:18.732Z,9.03
2022-10-18T06:08:49.705Z,9.01
2022-10-18T06:11:19.287Z,9.04
2022-10-18T06:13:48.346Z,9.04
2022-10-18T06:16:17.879Z,8.98
2022-10-18T06:18:49.348Z,9.02
2022-10-18T06:21:16.766Z,8.96
2022-10-18T06:23:44.013Z,8.97
2022-10-18T06:26:11.938Z,8.90
2022-10-18T06:28:39.426Z,8.87
2022-10-18T06:31:06.904Z,8.83
2022-10-18T06:33:35.448Z,8.86
2022-10-18T06:36:08.661Z,8.84
2022-10-18T06:38:36.166Z,8.87
2022-10-18T06:41:05.087Z,8.88
2022-10-18T06:43:32.463Z,8.93
2022-10-18T06:46:02.159Z,8.97
2022-10-18T06:48:29.376Z,9.05
2022-10-18T06:50:58.918Z,9.07
2022-10-18T06:53:28.740Z,9.10
2022-10-18T06:56:04.650Z,9.16
2022-10-18T06:58:32.084Z,9.16
2022-10-18T07:00:59.357Z,9.18
2022-10-18T07:03:27.375Z,9.20
2022-10-18T07:05:54.431Z,9.24
2022-10-18T07:08:21.474Z,9.28
2022-10-18T07:10:53.295Z,9.27
2022-10-18T07:13:32.018Z,9.23
2022-10-18T07:16:09.796Z,9.26
2022-10-18T07:18:41.751Z,9.25
2022-10-18T07:21:10.992Z,9.25
2022-10-18T07:23:40.677Z,9.30
2022-10-18T07:26:18.443Z,9.33
2022-10-18T07:28:47.964Z,9.33
2022-10-18T07:31:15.077Z,9.36
2022-10-18T07:33:43.196Z,9.41
2022-10-18T07:36:12.114Z,9.48
2022-10-18T07:38:39.487Z,9.40
2022-10-18T07:41:07.859Z,9.44
2022-10-18T07:43:35.836Z,9.46
2022-10-18T07:46:05.266Z,9.51
2022-10-18T07:48:32.537Z,9.49
2022-10-18T07:51:00.889Z,9.50
2022-10-18T07:53:29.222Z,9.59
2022-10-18T07:56:07.180Z,9.65
2022-10-18T07:58:36.670Z,9.65
2022-10-18T08:01:04.787Z,9.39
2022-10-18T08:03:32.307Z,9.47
2022-10-18T08:05:59.378Z,9.42
2022-10-18T08:08:27.197Z,9.44
2022-10-18T08:10:54.555Z,9.34
2022-10-18T08:13:22.539Z,9.36
2022-10-18T08:15:49.528Z,9.29
2022-10-18T08:18:16.468Z,9.21
2022-10-18T08:20:45.280Z,9.12
2022-10-18T08:23:12.730Z,9.05
2022-10-18T08:25:39.786Z,9.07
2022-10-18T08:28:07.257Z,9.01
2022-10-18T08:30:36.054Z,9.04
2022-10-18T08:33:03.906Z,9.20
2022-10-18T08:35:32.018Z,9.23
2022-10-18T08:37:59.553Z,9.16
2022-10-18T08:40:27.752Z,9.16
2022-10-18T08:43:29.992Z,9.04
2022-10-18T08:45:57.580Z,9.20
2022-10-18T08:48:46.226Z,9.27
2022-10-18T08:51:35.065Z,9.27
2022-10-18T08:54:12.592Z,9.37
2022-10-18T08:56:45.845Z,9.29
2022-10-18T08:59:13.509Z,9.43
2022-10-18T09:02:01.753Z,9.38
2022-10-18T09:04:41.117Z,9.51
2022-10-18T09:07:36.854Z,9.59
2022-10-18T09:10:24.047Z,9.53
2022-10-18T09:13:09.419Z,9.48
2022-10-18T09:15:45.089Z,9.62
2022-10-18T09:18:24.367Z,9.65
2022-10-18T09:20:57.262Z,9.75
2022-10-18T09:23:44.196Z,9.87
2022-10-18T09:26:17.689Z,9.83
2022-10-18T09:29:13.922Z,9.91
2022-10-18T09:32:04.863Z,10.02
2022-10-18T09:34:39.882Z,9.94
2022-10-18T09:37:13.604Z,10.00
2022-10-18T09:39:42.080Z,10.06
2022-10-18T09:42:16.580Z,10.16
2022-10-18T09:44:51.453Z,10.15
2022-10-18T09:47:52.299Z,10.18
2022-10-18T09:50:33.220Z,10.25
2022-10-18T09:53:12.550Z,10.28
2022-10-18T09:55:53.748Z,10.39
2022-10-18T09:58:23.041Z,10.44
2022-10-18T10:00:52.844Z,10.48
2022-10-18T10:03:19.895Z,10.52
2022-10-18T10:05:46.891Z,10.48
2022-10-18T10:08:14.129Z,10.43
2022-10-18T10:10:47.689Z,10.52
2022-10-18T10:13:16.341Z,10.60
2022-10-18T10:15:53.447Z,10.60
2022-10-18T10:18:22.922Z,10.71
2022-10-18T10:21:02.695Z,10.82
2022-10-18T10:23:33.201Z,10.88
2022-10-18T10:26:03.966Z,10.92
2022-10-18T10:28:37.395Z,10.82
2022-10-18T10:31:32.710Z,10.77
2022-10-18T10:34:19.237Z,10.78
2022-10-18T10:36:49.425Z,10.78
2022-10-18T10:39:21.468Z,10.80
2022-10-18T10:41:52.720Z,10.74
2022-10-18T10:44:23.510Z,10.71
2022-10-18T10:46:52.456Z,10.57
2022-10-18T10:52:28.567Z,10.57
2022-10-18T10:57:47.417Z,10.54
2022-10-18T11:00:44.070Z,10.53
2022-10-18T11:03:34.539Z,10.56
2022-10-18T11:06:02.175Z,10.53
2022-10-18T11:08:39.265Z,10.62
2022-10-18T11:11:27.057Z,10.62
2022-10-18T11:16:56.866Z,10.72
2022-10-18T11:19:34.665Z,10.80
2022-10-18T11:22:05.774Z,10.89
2022-10-18T11:24:35.832Z,10.93
2022-10-18T11:27:16.981Z,10.92
2022-10-18T11:30:12.598Z,10.98
2022-10-18T11:33:00.737Z,11.10
2022-10-18T11:35:50.604Z,11.23
2022-10-18T11:38:41.929Z,11.31
2022-10-18T11:41:40.002Z,11.46
2022-10-18T11:44:35.385Z,11.61
2022-10-18T11:47:23.425Z,11.78
2022-10-18T11:50:21.149Z,11.84
2022-10-18T11:53:04.737Z,11.99
2022-10-18T11:55:43.499Z,12.03
2022-10-18T11:58:32.090Z,12.10
2022-10-18T12:01:13.069Z,12.07
2022-10-18T12:03:58.802Z,12.05
2022-10-18T12:06:32.964Z,12.10
2022-10-18T12:09:05.183Z,12.23
2022-10-18T12:11:41.855Z,12.26
2022-10-18T12:14:29.362Z,12.36
2022-10-18T12:17:27.996Z,12.32
2022-10-18T12:19:49.946Z,12.44
2022-10-18T12:22:26.034Z,12.51
2022-10-18T12:24:53.009Z,12.56
2022-10-18T12:30:37.895Z,12.55
2022-10-18T12:33:27.955Z,12.59
2022-10-18T12:36:01.399Z,12.49
2022-10-18T12:38:32.964Z,12.50
2022-10-18T12:41:00.870Z,12.55
2022-10-18T12:43:34.223Z,12.60
2022-10-18T12:46:02.802Z,12.58
2022-10-18T12:48:29.782Z,12.69
2022-10-18T12:51:05.989Z,12.65
2022-10-18T12:53:34.186Z,12.87
2022-10-18T12:56:29.120Z,12.86
2022-10-18T12:59:39.103Z,12.82
2022-10-18T13:02:06.074Z,12.94
2022-10-18T13:04:34.986Z,13.14
2022-10-18T13:07:08.475Z,13.17
2022-10-18T13:09:46.687Z,13.09
2022-10-18T13:12:15.513Z,13.18
2022-10-18T13:15:25.981Z,13.24
2022-10-18T13:18:08.724Z,13.21
2022-10-18T13:20:54.414Z,13.31
2022-10-18T13:23:45.355Z,13.32
2022-10-18T13:26:38.138Z,13.31
2022-10-18T13:29:30.421Z,13.20
2022-10-18T13:32:28.163Z,13.14
2022-10-18T13:34:55.302Z,13.13
2022-10-18T13:37:25.425Z,13.15
2022-10-18T13:40:25.407Z,13.05
2022-10-18T13:42:52.583Z,13.17
2022-10-18T13:45:31.967Z,13.29
2022-10-18T13:48:30.095Z,13.28
2022-10-18T13:51:50.491Z,13.30
2022-10-18T13:54:29.429Z,13.25
2022-10-18T13:57:18.105Z,13.27
2022-10-18T14:00:04.112Z,13.28
2022-10-18T14:03:00.214Z,13.32
2022-10-18T14:06:01.792Z,13.32
2022-10-18T14:09:09.395Z,13.27
2022-10-18T14:12:19.390Z,13.36
2022-10-18T14:14:54.937Z,13.37
2022-10-18T14:17:36.401Z,13.35
2022-10-18T14:20:14.575Z,13.24
2022-10-18T14:22:48.690Z,13.21
2022-10-18T14:25:27.118Z,13.18
2022-10-18T14:28:36.343Z,13.16
2022-10-18T14:31:16.248Z,13.20
2022-10-18T14:33:47.182Z,13.14
2022-10-18T14:36:21.956Z,13.02
2022-10-18T14:38:56.228Z,13.08
2022-10-18T14:41:32.857Z,13.07
2022-10-18T14:44:15.262Z,13.11
2022-10-18T14:47:06.182Z,13.06
2022-10-18T14:49:33.298Z,12.92
2022-10-18T14:52:01.203Z,12.86
2022-10-18T14:54:37.826Z,12.87
2022-10-18T14:57:06.444Z,12.69
2022-10-18T14:59:42.061Z,12.74
2022-10-18T15:02:16.778Z,12.80
2022-10-18T15:04:45.925Z,12.85
2022-10-18T15:07:16.574Z,12.75
2022-10-18T15:09:43.871Z,12.70
2022-10-18T15:12:15.044Z,12.89
2022-10-18T15:14:43.470Z,12.89
2022-10-18T15:17:25.894Z,12.96
2022-10-18T15:20:18.844Z,12.88
2022-10-18T15:22:47.000Z,12.79
2022-10-18T15:25:22.622Z,12.69
2022-10-18T15:27:52.569Z,12.79
2022-10-18T15:30:28.260Z,12.75
2022-10-18T15:32:58.955Z,12.65
2022-10-18T15:35:33.047Z,12.54
2022-10-18T15:38:13.728Z,12.65
2022-10-18T15:40:41.973Z,12.52
2022-10-18T15:43:25.485Z,12.55
2022-10-18T15:46:05.347Z,12.59
2022-10-18T15:48:40.311Z,12.61
2022-10-18T15:51:48.284Z,12.52
2022-10-18T15:54:19.599Z,12.20
2022-10-18T15:56:46.676Z,12.29
2022-10-18T15:59:29.302Z,12.23
2022-10-18T16:01:56.497Z,12.24
2022-10-18T16:04:25.392Z,12.17
2022-10-18T16:06:53.208Z,11.83
2022-10-18T16:09:21.681Z,11.94
2022-10-18T16:11:56.384Z,12.03
2022-10-18T16:14:25.560Z,11.97
2022-10-18T16:17:00.725Z,11.94
2022-10-18T16:19:28.152Z,11.90
2022-10-18T16:21:55.733Z,11.74
2022-10-18T16:24:23.521Z,11.75
2022-10-18T16:26:51.352Z,11.75
2022-10-18T16:29:24.521Z,11.65
2022-10-18T16:31:53.756Z,11.66
2022-10-18T16:34:22.647Z,11.61
2022-10-18T16:36:49.945Z,11.57
2022-10-18T16:39:18.976Z,11.52
2022-10-18T16:41:47.169Z,11.44
2022-10-18T16:44:16.067Z,11.45
2022-10-18T16:46:43.723Z,11.43
2022-10-18T16:49:25.203Z,11.47
2022-10-18T16:51:53.478Z,11.40
2022-10-18T16:54:21.237Z,11.35
2022-10-18T16:56:50.261Z,11.41
2022-10-18T16:59:27.572Z,11.46
2022-10-18T17:01:54.938Z,11.45
2022-10-18T17:04:22.240Z,11.53
2022-10-18T17:06:49.731Z,11.58
2022-10-18T17:09:17.007Z,11.61
2022-10-18T17:11:44.319Z,11.64
2022-10-18T17:14:11.532Z,11.49
2022-10-18T17:16:40.037Z,11.33
2022-10-18T17:19:11.208Z,11.18
2022-10-18T17:21:38.544Z,11.10
2022-10-18T17:24:06.442Z,10.99
2022-10-18T17:26:34.321Z,11.02
2022-10-18T17:29:05.061Z,10.99
2022-10-18T17:31:32.457Z,10.90
2022-10-18T17:34:01.885Z,10.93
2022-10-18T17:36:33.613Z,10.82
2022-10-18T17:39:01.831Z,10.75
2022-10-18T17:41:30.588Z,10.77
2022-10-18T17:43:57.971Z,10.76
2022-10-18T17:46:25.216Z,10.82
2022-10-18T17:48:53.250Z,10.70
2022-10-18T17:51:20.341Z,10.74
2022-10-18T17:53:47.488Z,10.74
2022-10-18T17:56:15.631Z,10.52
2022-10-18T17:58:47.182Z,10.67
2022-10-18T18:01:17.532Z,10.60
2022-10-18T18:03:45.346Z,10.57
2022-10-18T18:06:16.576Z,10.63
2022-10-18T18:08:44.209Z,10.68
2022-10-18T18:11:11.784Z,10.66
2022-10-18T18:13:40.267Z,10.55
2022-10-18T18:16:12.380Z,10.55
2022-10-18T18:18:39.487Z,10.31
2022-10-18T18:21:06.587Z,10.41
2022-10-18T18:23:33.744Z,10.25
2022-10-18T18:26:00.971Z,10.25
2022-10-18T18:28:28.183Z,9.98
2022-10-18T18:30:55.334Z,10.08
2022-10-18T18:33:22.476Z,10.06
2022-10-18T18:35:58.630Z,9.87
2022-10-18T18:38:26.525Z,9.85
2022-10-18T18:41:18.204Z,9.83
2022-10-18T18:43:52.150Z,9.71
2022-10-18T18:46:19.857Z,9.75
2022-10-18T18:48:47.102Z,9.69
2022-10-18T18:51:20.320Z,9.70
2022-10-18T18:53:48.872Z,9.62
2022-10-18T18:58:47.209Z,9.61
2022-10-18T19:01:22.628Z,9.60
2022-10-18T19:03:51.668Z,9.56
2022-10-18T19:06:40.358Z,9.55
2022-10-18T19:09:22.452Z,9.56
2022-10-18T19:11:53.060Z,9.52
2022-10-18T19:17:01.196Z,9.49
2022-10-18T19:19:30.518Z,9.48
2022-10-18T19:22:00.364Z,9.50
2022-10-18T19:24:30.310Z,9.49
2022-10-18T19:27:01.574Z,9.51
2022-10-18T19:29:32.849Z,9.43
2022-10-18T19:32:02.765Z,9.39
2022-10-18T19:34:31.570Z,9.33
2022-10-18T19:36:58.762Z,9.41
2022-10-18T19:39:31.857Z,9.44
2022-10-18T19:42:00.539Z,9.45
2022-10-18T19:44:30.919Z,9.41
2022-10-18T19:46:58.660Z,9.44
2022-10-18T19:49:26.286Z,9.44
2022-10-18T19:51:53.408Z,9.42
2022-10-18T19:54:21.154Z,9.52
2022-10-18T19:56:48.373Z,9.62
2022-10-18T19:59:16.751Z,9.69
2022-10-18T20:01:44.806Z,9.78
2022-10-18T20:04:12.945Z,9.88
2022-10-18T20:06:40.972Z,9.87
2022-10-18T20:09:12.364Z,9.99
2022-10-18T20:11:42.232Z,10.04
2022-10-18T20:14:12.372Z,10.11
2022-10-18T20:16:39.488Z,10.14
2022-10-18T20:19:07.770Z,10.16
2022-10-18T20:21:36.131Z,10.10
2022-10-18T20:24:05.073Z,10.08
2022-10-18T20:26:32.729Z,10.02
2022-10-18T20:29:00.376Z,9.98
2022-10-18T20:31:30.507Z,9.99
2022-10-18T20:34:00.201Z,9.98
2022-10-18T20:36:29.047Z,10.00
2022-10-18T20:38:56.378Z,10.01
2022-10-18T20:41:31.955Z,10.02
2022-10-18T20:44:05.385Z,10.02
2022-10-18T20:46:35.394Z,9.98
2022-10-18T20:49:03.489Z,9.92
2022-10-18T20:51:31.068Z,9.90
2022-10-18T20:53:59.341Z,9.88
2022-10-18T20:56:27.375Z,9.91
2022-10-18T20:58:56.936Z,9.91
2022-10-18T21:01:28.876Z,9.97
2022-10-18T21:03:57.740Z,9.97
2022-10-18T21:06:26.339Z,10.06
2022-10-18T21:08:59.024Z,10.12
2022-10-18T21:11:27.833Z,10.19
2022-10-18T21:13:59.164Z,10.24
2022-10-18T21:16:27.286Z,10.26
2022-10-18T21:18:55.141Z,10.32
2022-10-18T21:21:25.669Z,10.37
2022-10-18T21:23:53.722Z,10.44
2022-10-18T21:26:25.795Z,10.48
2022-10-18T21:28:54.777Z,10.52
2022-10-18T21:31:24.176Z,10.53
2022-10-18T21:33:59.737Z,10.56
2022-10-18T21:36:30.326Z,10.53
2022-10-18T21:38:57.451Z,10.51
2022-10-18T21:41:25.171Z,10.55
2022-10-18T21:43:54.432Z,10.56
2022-10-18T21:46:23.315Z,10.55
2022-10-18T21:48:52.299Z,10.55
2022-10-18T21:51:21.081Z,10.57
2022-10-18T21:53:50.679Z,10.58
2022-10-18T21:56:26.668Z,10.58
2022-10-18T21:58:54.562Z,10.56
2022-10-18T22:01:28.054Z,10.55
2022-10-18T22:03:56.881Z,10.57
2022-10-18T22:06:25.395Z,10.59
2022-10-18T22:08:57.513Z,10.63
2022-10-18T22:11:31.585Z,10.64
2022-10-18T22:13:59.390Z,10.66
2022-10-18T22:16:26.977Z,10.66
2022-10-18T22:18:58.111Z,10.67
2022-10-18T22:21:25.321Z,10.65
2022-10-18T22:23:54.862Z,10.68
2022-10-18T22:26:30.833Z,10.73
2022-10-18T22:29:04.420Z,10.75
2022-10-18T22:31:34.455Z,10.76
2022-10-18T22:34:04.481Z,10.69
2022-10-18T22:36:32.815Z,10.69
2022-10-18T22:39:00.428Z,10.70
2022-10-18T22:41:27.495Z,10.68
2022-10-18T22:43:56.392Z,10.70
2022-10-18T22:46:26.343Z,10.73
2022-10-18T22:48:53.422Z,10.74
2022-10-18T22:51:20.846Z,10.71
2022-10-18T22:53:47.963Z,10.64
2022-10-18T22:56:21.634Z,10.65
2022-10-18T22:58:49.590Z,10.64
2022-10-18T23:01:20.487Z,10.61
2022-10-18T23:03:52.065Z,10.60
2022-10-18T23:06:28.445Z,10.61
2022-10-18T23:08:57.449Z,10.61
2022-10-18T23:11:26.027Z,10.65
2022-10-18T23:13:53.670Z,10.66
2022-10-18T23:16:21.415Z,10.66
2022-10-18T23:18:53.302Z,10.64
2022-10-18T23:21:21.177Z,10.60
2022-10-18T23:23:48.283Z,10.60
2022-10-18T23:26:17.979Z,10.59
2022-10-18T23:28:48.153Z,10.49
2022-10-18T23:31:18.275Z,10.46
2022-10-18T23:33:47.538Z,10.38
2022-10-18T23:36:15.044Z,10.37
2022-10-18T23:38:42.940Z,10.38
2022-10-18T23:41:11.959Z,10.34
2022-10-18T23:43:39.740Z,10.37
2022-10-18T23:46:07.404Z,10.35
2022-10-18T23:48:34.537Z,10.37
2022-10-18T23:51:02.663Z,10.35
2022-10-18T23:53:29.915Z,10.34
2022-10-18T23:55:59.306Z,10.35
2022-10-18T23:58:27.470Z,10.35
